sensor_id;sensor_type;location;lat;lon;timestamp;P1;durP1;ratioP1;P2;durP2;ratioP2
5135;SDS011;2586;48.710;9.202;2023-03-19T00:02:24;9.93;;;4.23;;
5135;SDS011;2586;48.710;9.202;2023-03-19T00:04:49;13.53;;;3.33;;
5135;SDS011;2586;48.710;9.202;2023-03-19T00:07:15;7.83;;;3.40;;
5135;SDS011;2586;48.710;9.202;2023-03-19T00:09:41;7.60;;;3.60;;
5135;SDS011;2586;48.710;9.202;2023-03-19T00:12:09;8.10;;;3.90;;
5135;SDS011;2586;48.710;9.202;2023-03-19T00:14:35;6.70;;;3.10;;
5135;SDS011;2586;48.710;9.202;2023-03-19T00:17:01;7.53;;;2.70;;
5135;SDS011;2586;48.710;9.202;2023-03-19T00:19:27;9.80;;;3.23;;
5135;SDS011;2586;48.710;9.202;2023-03-19T00:21:53;5.67;;;3.40;;
5135;SDS011;2586;48.710;9.202;2023-03-19T00:24:19;5.97;;;3.50;;
5135;SDS011;2586;48.710;9.202;2023-03-19T00:26:45;6.17;;;3.00;;
5135;SDS011;2586;48.710;9.202;2023-03-19T00:29:10;8.10;;;2.90;;
5135;SDS011;2586;48.710;9.202;2023-03-19T00:31:36;3.50;;;2.50;;
5135;SDS011;2586;48.710;9.202;2023-03-19T00:34:02;6.17;;;3.23;;
5135;SDS011;2586;48.710;9.202;2023-03-19T00:36:28;4.40;;;3.10;;
5135;SDS011;2586;48.710;9.202;2023-03-19T00:38:54;3.83;;;2.40;;
5135;SDS011;2586;48.710;9.202;2023-03-19T00:41:20;5.83;;;3.40;;
5135;SDS011;2586;48.710;9.202;2023-03-19T00:43:46;8.73;;;3.10;;
5135;SDS011;2586;48.710;9.202;2023-03-19T00:46:16;3.80;;;2.60;;
5135;SDS011;2586;48.710;9.202;2023-03-19T00:48:41;5.07;;;2.83;;
5135;SDS011;2586;48.710;9.202;2023-03-19T00:51:08;4.50;;;2.90;;
5135;SDS011;2586;48.710;9.202;2023-03-19T00:53:38;13.77;;;3.77;;
5135;SDS011;2586;48.710;9.202;2023-03-19T00:56:06;6.77;;;3.67;;
5135;SDS011;2586;48.710;9.202;2023-03-19T00:58:32;10.57;;;3.10;;
5135;SDS011;2586;48.710;9.202;2023-03-19T01:00:58;6.97;;;2.93;;
5135;SDS011;2586;48.710;9.202;2023-03-19T01:03:24;11.77;;;3.87;;
5135;SDS011;2586;48.710;9.202;2023-03-19T01:05:50;4.97;;;3.33;;
5135;SDS011;2586;48.710;9.202;2023-03-19T01:08:16;6.20;;;4.40;;
5135;SDS011;2586;48.710;9.202;2023-03-19T01:10:42;10.00;;;3.90;;
5135;SDS011;2586;48.710;9.202;2023-03-19T01:13:09;9.93;;;3.37;;
5135;SDS011;2586;48.710;9.202;2023-03-19T01:15:38;7.80;;;3.37;;
5135;SDS011;2586;48.710;9.202;2023-03-19T01:18:06;7.67;;;2.93;;
5135;SDS011;2586;48.710;9.202;2023-03-19T01:20:33;10.43;;;3.33;;
5135;SDS011;2586;48.710;9.202;2023-03-19T01:22:59;4.27;;;3.10;;
5135;SDS011;2586;48.710;9.202;2023-03-19T01:25:25;6.00;;;3.40;;
5135;SDS011;2586;48.710;9.202;2023-03-19T01:27:51;4.00;;;3.43;;
5135;SDS011;2586;48.710;9.202;2023-03-19T01:30:17;6.40;;;3.83;;
5135;SDS011;2586;48.710;9.202;2023-03-19T01:32:43;6.30;;;3.50;;
5135;SDS011;2586;48.710;9.202;2023-03-19T01:35:08;4.60;;;3.80;;
5135;SDS011;2586;48.710;9.202;2023-03-19T01:37:34;10.30;;;3.60;;
5135;SDS011;2586;48.710;9.202;2023-03-19T01:40:00;8.70;;;3.17;;
5135;SDS011;2586;48.710;9.202;2023-03-19T01:42:27;4.67;;;3.20;;
5135;SDS011;2586;48.710;9.202;2023-03-19T01:44:52;6.10;;;2.40;;
5135;SDS011;2586;48.710;9.202;2023-03-19T01:47:23;5.73;;;3.07;;
5135;SDS011;2586;48.710;9.202;2023-03-19T01:49:58;6.10;;;2.67;;
5135;SDS011;2586;48.710;9.202;2023-03-19T01:52:24;4.70;;;2.80;;
5135;SDS011;2586;48.710;9.202;2023-03-19T01:54:53;3.73;;;2.10;;
5135;SDS011;2586;48.710;9.202;2023-03-19T01:57:20;5.07;;;3.10;;
5135;SDS011;2586;48.710;9.202;2023-03-19T01:59:53;3.47;;;2.50;;
5135;SDS011;2586;48.710;9.202;2023-03-19T02:02:33;3.13;;;1.80;;
5135;SDS011;2586;48.710;9.202;2023-03-19T02:05:07;2.20;;;2.00;;
5135;SDS011;2586;48.710;9.202;2023-03-19T02:07:36;2.93;;;1.93;;
5135;SDS011;2586;48.710;9.202;2023-03-19T02:10:04;2.13;;;1.93;;
5135;SDS011;2586;48.710;9.202;2023-03-19T02:12:35;3.83;;;2.07;;
5135;SDS011;2586;48.710;9.202;2023-03-19T02:15:02;3.90;;;2.30;;
5135;SDS011;2586;48.710;9.202;2023-03-19T02:17:29;2.90;;;2.30;;
5135;SDS011;2586;48.710;9.202;2023-03-19T02:22:26;2.50;;;2.07;;
5135;SDS011;2586;48.710;9.202;2023-03-19T02:27:22;4.10;;;2.50;;
5135;SDS011;2586;48.710;9.202;2023-03-19T02:29:48;6.83;;;3.47;;
5135;SDS011;2586;48.710;9.202;2023-03-19T02:32:13;5.17;;;3.23;;
5135;SDS011;2586;48.710;9.202;2023-03-19T02:34:40;4.30;;;3.37;;
5135;SDS011;2586;48.710;9.202;2023-03-19T02:37:09;8.83;;;2.80;;
5135;SDS011;2586;48.710;9.202;2023-03-19T02:39:53;7.47;;;3.30;;
5135;SDS011;2586;48.710;9.202;2023-03-19T02:42:29;3.10;;;2.83;;
5135;SDS011;2586;48.710;9.202;2023-03-19T02:44:56;7.97;;;3.53;;
5135;SDS011;2586;48.710;9.202;2023-03-19T02:47:22;3.30;;;3.07;;
5135;SDS011;2586;48.710;9.202;2023-03-19T02:49:49;2.97;;;2.53;;
5135;SDS011;2586;48.710;9.202;2023-03-19T02:52:14;5.43;;;2.90;;
5135;SDS011;2586;48.710;9.202;2023-03-19T02:54:41;3.00;;;2.60;;
5135;SDS011;2586;48.710;9.202;2023-03-19T02:57:06;4.73;;;2.97;;
5135;SDS011;2586;48.710;9.202;2023-03-19T02:59:32;5.17;;;2.80;;
5135;SDS011;2586;48.710;9.202;2023-03-19T03:01:58;2.80;;;2.60;;
5135;SDS011;2586;48.710;9.202;2023-03-19T03:04:23;2.83;;;2.33;;
5135;SDS011;2586;48.710;9.202;2023-03-19T03:06:50;11.63;;;3.20;;
5135;SDS011;2586;48.710;9.202;2023-03-19T03:09:16;4.53;;;3.27;;
5135;SDS011;2586;48.710;9.202;2023-03-19T03:11:42;3.00;;;2.80;;
5135;SDS011;2586;48.710;9.202;2023-03-19T03:14:08;3.87;;;3.07;;
5135;SDS011;2586;48.710;9.202;2023-03-19T03:16:36;6.80;;;2.97;;
5135;SDS011;2586;48.710;9.202;2023-03-19T03:19:02;6.60;;;3.27;;
5135;SDS011;2586;48.710;9.202;2023-03-19T03:21:28;6.57;;;3.40;;
5135;SDS011;2586;48.710;9.202;2023-03-19T03:23:53;4.53;;;3.03;;
5135;SDS011;2586;48.710;9.202;2023-03-19T03:26:19;8.00;;;2.60;;
5135;SDS011;2586;48.710;9.202;2023-03-19T03:28:45;6.27;;;3.20;;
5135;SDS011;2586;48.710;9.202;2023-03-19T03:31:10;2.70;;;2.30;;
5135;SDS011;2586;48.710;9.202;2023-03-19T03:33:37;14.47;;;3.27;;
5135;SDS011;2586;48.710;9.202;2023-03-19T03:36:03;6.63;;;2.80;;
5135;SDS011;2586;48.710;9.202;2023-03-19T03:38:29;5.70;;;3.33;;
5135;SDS011;2586;48.710;9.202;2023-03-19T03:40:56;7.37;;;3.50;;
5135;SDS011;2586;48.710;9.202;2023-03-19T03:43:22;3.80;;;3.20;;
5135;SDS011;2586;48.710;9.202;2023-03-19T03:45:49;4.90;;;3.43;;
5135;SDS011;2586;48.710;9.202;2023-03-19T03:48:15;3.30;;;3.00;;
5135;SDS011;2586;48.710;9.202;2023-03-19T03:50:41;5.23;;;3.33;;
5135;SDS011;2586;48.710;9.202;2023-03-19T03:53:06;3.40;;;3.00;;
5135;SDS011;2586;48.710;9.202;2023-03-19T03:55:32;5.23;;;3.50;;
5135;SDS011;2586;48.710;9.202;2023-03-19T03:57:58;9.10;;;3.70;;
5135;SDS011;2586;48.710;9.202;2023-03-19T04:00:24;4.80;;;3.27;;
5135;SDS011;2586;48.710;9.202;2023-03-19T04:02:50;5.13;;;3.10;;
5135;SDS011;2586;48.710;9.202;2023-03-19T04:05:16;13.87;;;3.97;;
5135;SDS011;2586;48.710;9.202;2023-03-19T04:07:42;4.70;;;2.73;;
5135;SDS011;2586;48.710;9.202;2023-03-19T04:10:09;4.90;;;2.90;;
5135;SDS011;2586;48.710;9.202;2023-03-19T04:12:38;5.47;;;3.60;;
5135;SDS011;2586;48.710;9.202;2023-03-19T04:15:06;6.03;;;3.27;;
5135;SDS011;2586;48.710;9.202;2023-03-19T04:17:33;7.40;;;3.30;;
5135;SDS011;2586;48.710;9.202;2023-03-19T04:19:59;5.63;;;3.50;;
5135;SDS011;2586;48.710;9.202;2023-03-19T04:22:25;3.10;;;2.70;;
5135;SDS011;2586;48.710;9.202;2023-03-19T04:24:51;6.50;;;3.30;;
5135;SDS011;2586;48.710;9.202;2023-03-19T04:27:17;6.57;;;3.90;;
5135;SDS011;2586;48.710;9.202;2023-03-19T04:29:42;3.63;;;3.30;;
5135;SDS011;2586;48.710;9.202;2023-03-19T04:32:08;5.37;;;3.00;;
5135;SDS011;2586;48.710;9.202;2023-03-19T04:34:34;5.17;;;3.70;;
5135;SDS011;2586;48.710;9.202;2023-03-19T04:37:00;8.63;;;4.00;;
5135;SDS011;2586;48.710;9.202;2023-03-19T04:39:26;5.70;;;3.30;;
5135;SDS011;2586;48.710;9.202;2023-03-19T04:41:52;4.67;;;3.23;;
5135;SDS011;2586;48.710;9.202;2023-03-19T04:44:18;4.57;;;3.23;;
5135;SDS011;2586;48.710;9.202;2023-03-19T04:46:43;4.83;;;3.07;;
5135;SDS011;2586;48.710;9.202;2023-03-19T04:49:10;5.10;;;3.17;;
5135;SDS011;2586;48.710;9.202;2023-03-19T04:51:36;4.13;;;3.43;;
5135;SDS011;2586;48.710;9.202;2023-03-19T04:54:02;13.30;;;3.33;;
5135;SDS011;2586;48.710;9.202;2023-03-19T04:56:29;6.87;;;3.60;;
5135;SDS011;2586;48.710;9.202;2023-03-19T04:58:55;3.77;;;3.00;;
5135;SDS011;2586;48.710;9.202;2023-03-19T05:01:20;7.70;;;3.20;;
5135;SDS011;2586;48.710;9.202;2023-03-19T05:03:46;8.60;;;3.90;;
5135;SDS011;2586;48.710;9.202;2023-03-19T05:06:12;6.00;;;3.20;;
5135;SDS011;2586;48.710;9.202;2023-03-19T05:08:41;12.80;;;3.40;;
5135;SDS011;2586;48.710;9.202;2023-03-19T05:11:07;9.20;;;3.67;;
5135;SDS011;2586;48.710;9.202;2023-03-19T05:13:32;6.80;;;3.90;;
5135;SDS011;2586;48.710;9.202;2023-03-19T05:15:58;5.27;;;3.80;;
5135;SDS011;2586;48.710;9.202;2023-03-19T05:18:23;4.10;;;2.80;;
5135;SDS011;2586;48.710;9.202;2023-03-19T05:20:50;7.97;;;3.17;;
5135;SDS011;2586;48.710;9.202;2023-03-19T05:23:15;5.07;;;3.93;;
5135;SDS011;2586;48.710;9.202;2023-03-19T05:25:41;9.90;;;3.40;;
5135;SDS011;2586;48.710;9.202;2023-03-19T05:28:07;6.60;;;3.33;;
5135;SDS011;2586;48.710;9.202;2023-03-19T05:30:33;10.47;;;4.10;;
5135;SDS011;2586;48.710;9.202;2023-03-19T05:32:59;6.20;;;3.57;;
5135;SDS011;2586;48.710;9.202;2023-03-19T05:35:26;5.77;;;3.80;;
5135;SDS011;2586;48.710;9.202;2023-03-19T05:37:53;4.30;;;3.40;;
5135;SDS011;2586;48.710;9.202;2023-03-19T05:40:19;11.00;;;3.50;;
5135;SDS011;2586;48.710;9.202;2023-03-19T05:42:44;5.80;;;3.93;;
5135;SDS011;2586;48.710;9.202;2023-03-19T05:45:10;4.83;;;3.47;;
5135;SDS011;2586;48.710;9.202;2023-03-19T05:47:36;6.47;;;3.50;;
5135;SDS011;2586;48.710;9.202;2023-03-19T05:50:02;5.47;;;3.00;;
5135;SDS011;2586;48.710;9.202;2023-03-19T05:52:27;5.03;;;2.97;;
5135;SDS011;2586;48.710;9.202;2023-03-19T05:54:53;8.97;;;3.50;;
5135;SDS011;2586;48.710;9.202;2023-03-19T05:57:19;4.17;;;3.77;;
5135;SDS011;2586;48.710;9.202;2023-03-19T05:59:44;8.33;;;3.30;;
5135;SDS011;2586;48.710;9.202;2023-03-19T06:02:10;5.83;;;3.77;;
5135;SDS011;2586;48.710;9.202;2023-03-19T06:04:35;5.90;;;3.90;;
5135;SDS011;2586;48.710;9.202;2023-03-19T06:07:01;7.73;;;4.27;;
5135;SDS011;2586;48.710;9.202;2023-03-19T06:09:26;4.33;;;2.40;;
5135;SDS011;2586;48.710;9.202;2023-03-19T06:11:52;4.90;;;3.40;;
5135;SDS011;2586;48.710;9.202;2023-03-19T06:14:18;4.50;;;3.33;;
5135;SDS011;2586;48.710;9.202;2023-03-19T06:16:43;4.13;;;3.50;;
5135;SDS011;2586;48.710;9.202;2023-03-19T06:19:09;6.17;;;3.00;;
5135;SDS011;2586;48.710;9.202;2023-03-19T06:21:34;7.40;;;3.80;;
5135;SDS011;2586;48.710;9.202;2023-03-19T06:24:00;5.03;;;3.80;;
5135;SDS011;2586;48.710;9.202;2023-03-19T06:26:26;6.40;;;3.70;;
5135;SDS011;2586;48.710;9.202;2023-03-19T06:28:51;6.10;;;4.23;;
5135;SDS011;2586;48.710;9.202;2023-03-19T06:31:17;9.20;;;5.57;;
5135;SDS011;2586;48.710;9.202;2023-03-19T06:33:43;7.57;;;4.07;;
5135;SDS011;2586;48.710;9.202;2023-03-19T06:36:09;6.43;;;3.90;;
5135;SDS011;2586;48.710;9.202;2023-03-19T06:38:35;10.73;;;3.43;;
5135;SDS011;2586;48.710;9.202;2023-03-19T06:41:00;5.63;;;3.90;;
5135;SDS011;2586;48.710;9.202;2023-03-19T06:43:27;5.90;;;4.07;;
5135;SDS011;2586;48.710;9.202;2023-03-19T06:45:53;6.97;;;4.00;;
5135;SDS011;2586;48.710;9.202;2023-03-19T06:48:19;9.13;;;3.93;;
5135;SDS011;2586;48.710;9.202;2023-03-19T06:50:45;8.47;;;4.43;;
5135;SDS011;2586;48.710;9.202;2023-03-19T06:53:11;7.00;;;4.73;;
5135;SDS011;2586;48.710;9.202;2023-03-19T06:55:37;3.90;;;3.27;;
5135;SDS011;2586;48.710;9.202;2023-03-19T06:58:03;16.73;;;5.07;;
5135;SDS011;2586;48.710;9.202;2023-03-19T07:00:29;6.33;;;4.20;;
5135;SDS011;2586;48.710;9.202;2023-03-19T07:02:55;8.30;;;4.00;;
5135;SDS011;2586;48.710;9.202;2023-03-19T07:05:20;11.00;;;4.27;;
5135;SDS011;2586;48.710;9.202;2023-03-19T07:07:46;5.50;;;3.37;;
5135;SDS011;2586;48.710;9.202;2023-03-19T07:10:11;4.50;;;2.80;;
5135;SDS011;2586;48.710;9.202;2023-03-19T07:12:37;5.37;;;3.67;;
5135;SDS011;2586;48.710;9.202;2023-03-19T07:15:03;7.43;;;3.07;;
5135;SDS011;2586;48.710;9.202;2023-03-19T07:17:30;3.37;;;3.07;;
5135;SDS011;2586;48.710;9.202;2023-03-19T07:19:56;3.40;;;2.90;;
5135;SDS011;2586;48.710;9.202;2023-03-19T07:22:22;3.13;;;2.83;;
5135;SDS011;2586;48.710;9.202;2023-03-19T07:24:47;5.17;;;2.40;;
5135;SDS011;2586;48.710;9.202;2023-03-19T07:27:13;10.43;;;2.80;;
5135;SDS011;2586;48.710;9.202;2023-03-19T07:29:38;5.97;;;3.20;;
5135;SDS011;2586;48.710;9.202;2023-03-19T07:32:04;3.80;;;2.90;;
5135;SDS011;2586;48.710;9.202;2023-03-19T07:34:30;6.07;;;3.23;;
5135;SDS011;2586;48.710;9.202;2023-03-19T07:36:55;5.03;;;2.10;;
5135;SDS011;2586;48.710;9.202;2023-03-19T07:39:22;8.90;;;3.17;;
5135;SDS011;2586;48.710;9.202;2023-03-19T07:41:47;4.77;;;3.07;;
5135;SDS011;2586;48.710;9.202;2023-03-19T07:44:14;12.20;;;3.27;;
5135;SDS011;2586;48.710;9.202;2023-03-19T07:46:40;10.00;;;3.27;;
5135;SDS011;2586;48.710;9.202;2023-03-19T07:49:06;15.27;;;2.67;;
5135;SDS011;2586;48.710;9.202;2023-03-19T07:51:32;6.53;;;3.87;;
5135;SDS011;2586;48.710;9.202;2023-03-19T07:53:58;6.40;;;3.20;;
5135;SDS011;2586;48.710;9.202;2023-03-19T07:56:24;6.03;;;3.90;;
5135;SDS011;2586;48.710;9.202;2023-03-19T07:58:49;6.30;;;3.40;;
5135;SDS011;2586;48.710;9.202;2023-03-19T08:01:15;10.43;;;3.13;;
5135;SDS011;2586;48.710;9.202;2023-03-19T08:03:41;8.73;;;3.20;;
5135;SDS011;2586;48.710;9.202;2023-03-19T08:06:07;4.00;;;2.73;;
5135;SDS011;2586;48.710;9.202;2023-03-19T08:08:33;2.40;;;2.20;;
5135;SDS011;2586;48.710;9.202;2023-03-19T08:10:59;4.87;;;3.23;;
5135;SDS011;2586;48.710;9.202;2023-03-19T08:13:25;7.63;;;3.10;;
5135;SDS011;2586;48.710;9.202;2023-03-19T08:15:51;7.77;;;3.80;;
5135;SDS011;2586;48.710;9.202;2023-03-19T08:18:17;3.40;;;3.00;;
5135;SDS011;2586;48.710;9.202;2023-03-19T08:20:44;5.70;;;2.97;;
5135;SDS011;2586;48.710;9.202;2023-03-19T08:23:11;13.13;;;3.57;;
5135;SDS011;2586;48.710;9.202;2023-03-19T08:25:37;5.90;;;2.80;;
5135;SDS011;2586;48.710;9.202;2023-03-19T08:28:03;5.73;;;2.40;;
5135;SDS011;2586;48.710;9.202;2023-03-19T08:30:29;5.93;;;2.50;;
5135;SDS011;2586;48.710;9.202;2023-03-19T08:32:54;4.07;;;2.93;;
5135;SDS011;2586;48.710;9.202;2023-03-19T08:35:20;5.90;;;2.60;;
5135;SDS011;2586;48.710;9.202;2023-03-19T08:37:46;4.57;;;3.03;;
5135;SDS011;2586;48.710;9.202;2023-03-19T08:40:12;4.73;;;2.70;;
5135;SDS011;2586;48.710;9.202;2023-03-19T08:42:38;3.23;;;2.73;;
5135;SDS011;2586;48.710;9.202;2023-03-19T08:45:06;3.77;;;2.47;;
5135;SDS011;2586;48.710;9.202;2023-03-19T08:47:35;10.33;;;2.80;;
5135;SDS011;2586;48.710;9.202;2023-03-19T08:50:03;6.30;;;3.57;;
5135;SDS011;2586;48.710;9.202;2023-03-19T08:52:29;4.40;;;3.13;;
5135;SDS011;2586;48.710;9.202;2023-03-19T08:54:55;7.27;;;4.23;;
5135;SDS011;2586;48.710;9.202;2023-03-19T08:57:20;10.10;;;3.60;;
5135;SDS011;2586;48.710;9.202;2023-03-19T08:59:46;7.13;;;3.40;;
5135;SDS011;2586;48.710;9.202;2023-03-19T09:02:12;5.30;;;2.90;;
5135;SDS011;2586;48.710;9.202;2023-03-19T09:04:41;3.80;;;3.50;;
5135;SDS011;2586;48.710;9.202;2023-03-19T09:07:07;8.30;;;3.27;;
5135;SDS011;2586;48.710;9.202;2023-03-19T09:09:37;7.67;;;3.27;;
5135;SDS011;2586;48.710;9.202;2023-03-19T09:12:03;2.73;;;2.53;;
5135;SDS011;2586;48.710;9.202;2023-03-19T09:14:28;5.40;;;2.50;;
5135;SDS011;2586;48.710;9.202;2023-03-19T09:16:54;5.30;;;3.23;;
5135;SDS011;2586;48.710;9.202;2023-03-19T09:19:20;6.77;;;3.60;;
5135;SDS011;2586;48.710;9.202;2023-03-19T09:21:47;10.00;;;3.90;;
5135;SDS011;2586;48.710;9.202;2023-03-19T09:24:13;2.97;;;2.67;;
5135;SDS011;2586;48.710;9.202;2023-03-19T09:26:38;7.47;;;2.93;;
5135;SDS011;2586;48.710;9.202;2023-03-19T09:29:04;6.37;;;3.50;;
5135;SDS011;2586;48.710;9.202;2023-03-19T09:31:29;2.57;;;2.37;;
5135;SDS011;2586;48.710;9.202;2023-03-19T09:33:55;4.83;;;2.17;;
5135;SDS011;2586;48.710;9.202;2023-03-19T09:36:21;2.93;;;2.20;;
5135;SDS011;2586;48.710;9.202;2023-03-19T09:38:46;8.03;;;2.13;;
5135;SDS011;2586;48.710;9.202;2023-03-19T09:44:30;7.40;;;2.00;;
5135;SDS011;2586;48.710;9.202;2023-03-19T09:46:57;1.60;;;1.50;;
5135;SDS011;2586;48.710;9.202;2023-03-19T09:49:34;4.67;;;2.10;;
5135;SDS011;2586;48.710;9.202;2023-03-19T09:52:14;7.13;;;2.23;;
5135;SDS011;2586;48.710;9.202;2023-03-19T09:54:48;4.60;;;2.03;;
5135;SDS011;2586;48.710;9.202;2023-03-19T09:57:16;7.50;;;1.97;;
5135;SDS011;2586;48.710;9.202;2023-03-19T09:59:42;1.50;;;1.40;;
5135;SDS011;2586;48.710;9.202;2023-03-19T10:13:17;2.37;;;1.90;;
5135;SDS011;2586;48.710;9.202;2023-03-19T10:16:18;3.17;;;1.63;;
5135;SDS011;2586;48.710;9.202;2023-03-19T10:18:47;11.03;;;1.83;;
5135;SDS011;2586;48.710;9.202;2023-03-19T10:21:19;5.23;;;2.37;;
5135;SDS011;2586;48.710;9.202;2023-03-19T10:26:29;3.30;;;1.80;;
5135;SDS011;2586;48.710;9.202;2023-03-19T10:37:37;6.10;;;1.47;;
5135;SDS011;2586;48.710;9.202;2023-03-19T10:39:49;4.17;;;1.90;;
5135;SDS011;2586;48.710;9.202;2023-03-19T10:44:43;2.67;;;1.60;;
5135;SDS011;2586;48.710;9.202;2023-03-19T10:47:34;6.77;;;1.47;;
5135;SDS011;2586;48.710;9.202;2023-03-19T10:50:03;2.83;;;2.10;;
5135;SDS011;2586;48.710;9.202;2023-03-19T10:52:30;2.70;;;1.40;;
5135;SDS011;2586;48.710;9.202;2023-03-19T10:55:11;5.40;;;1.33;;
5135;SDS011;2586;48.710;9.202;2023-03-19T10:57:40;2.37;;;1.50;;
5135;SDS011;2586;48.710;9.202;2023-03-19T11:00:14;5.00;;;1.60;;
5135;SDS011;2586;48.710;9.202;2023-03-19T11:02:50;2.10;;;1.17;;
5135;SDS011;2586;48.710;9.202;2023-03-19T11:07:55;4.40;;;1.80;;
5135;SDS011;2586;48.710;9.202;2023-03-19T11:10:28;1.93;;;1.50;;
5135;SDS011;2586;48.710;9.202;2023-03-19T11:13:18;2.70;;;1.23;;
5135;SDS011;2586;48.710;9.202;2023-03-19T11:15:47;1.50;;;1.40;;
5135;SDS011;2586;48.710;9.202;2023-03-19T11:18:20;7.33;;;1.20;;
5135;SDS011;2586;48.710;9.202;2023-03-19T11:20:48;7.70;;;2.20;;
5135;SDS011;2586;48.710;9.202;2023-03-19T11:23:29;3.13;;;1.47;;
5135;SDS011;2586;48.710;9.202;2023-03-19T11:26:01;1.43;;;1.20;;
5135;SDS011;2586;48.710;9.202;2023-03-19T11:28:28;2.50;;;1.43;;
5135;SDS011;2586;48.710;9.202;2023-03-19T11:31:02;2.87;;;1.23;;
5135;SDS011;2586;48.710;9.202;2023-03-19T11:33:55;1.20;;;1.10;;
5135;SDS011;2586;48.710;9.202;2023-03-19T11:39:19;1.77;;;1.37;;
5135;SDS011;2586;48.710;9.202;2023-03-19T11:54:16;3.17;;;1.20;;
5135;SDS011;2586;48.710;9.202;2023-03-19T11:56:47;3.53;;;1.30;;
5135;SDS011;2586;48.710;9.202;2023-03-19T12:02:53;2.73;;;1.47;;
5135;SDS011;2586;48.710;9.202;2023-03-19T12:05:54;2.73;;;1.13;;
5135;SDS011;2586;48.710;9.202;2023-03-19T12:08:27;5.47;;;1.57;;
5135;SDS011;2586;48.710;9.202;2023-03-19T12:10:57;4.43;;;1.40;;
5135;SDS011;2586;48.710;9.202;2023-03-19T12:13:49;7.93;;;1.63;;
5135;SDS011;2586;48.710;9.202;2023-03-19T12:26:49;2.03;;;1.37;;
5135;SDS011;2586;48.710;9.202;2023-03-19T12:29:42;4.73;;;1.20;;
5135;SDS011;2586;48.710;9.202;2023-03-19T12:35:36;1.33;;;1.10;;
5135;SDS011;2586;48.710;9.202;2023-03-19T12:38:05;1.83;;;1.40;;
5135;SDS011;2586;48.710;9.202;2023-03-19T12:40:46;2.43;;;1.60;;
5135;SDS011;2586;48.710;9.202;2023-03-19T12:43:20;2.90;;;1.13;;
5135;SDS011;2586;48.710;9.202;2023-03-19T12:46:10;2.33;;;1.00;;
5135;SDS011;2586;48.710;9.202;2023-03-19T12:51:35;1.77;;;1.50;;
5135;SDS011;2586;48.710;9.202;2023-03-19T12:54:10;3.37;;;1.73;;
5135;SDS011;2586;48.710;9.202;2023-03-19T12:56:48;2.63;;;1.50;;
5135;SDS011;2586;48.710;9.202;2023-03-19T13:02:00;9.30;;;1.93;;
5135;SDS011;2586;48.710;9.202;2023-03-19T13:04:34;3.80;;;1.53;;
5135;SDS011;2586;48.710;9.202;2023-03-19T13:07:11;4.20;;;1.87;;
5135;SDS011;2586;48.710;9.202;2023-03-19T13:10:02;2.20;;;1.60;;
5135;SDS011;2586;48.710;9.202;2023-03-19T13:12:33;2.87;;;1.80;;
5135;SDS011;2586;48.710;9.202;2023-03-19T13:15:09;2.50;;;1.50;;
5135;SDS011;2586;48.710;9.202;2023-03-19T13:23:29;2.10;;;1.30;;
5135;SDS011;2586;48.710;9.202;2023-03-19T13:25:58;2.23;;;1.40;;
5135;SDS011;2586;48.710;9.202;2023-03-19T13:28:32;1.13;;;0.93;;
5135;SDS011;2586;48.710;9.202;2023-03-19T13:36:36;1.23;;;1.00;;
5135;SDS011;2586;48.710;9.202;2023-03-19T13:39:03;6.80;;;1.70;;
5135;SDS011;2586;48.710;9.202;2023-03-19T13:46:58;1.40;;;1.00;;
5135;SDS011;2586;48.710;9.202;2023-03-19T13:49:35;1.23;;;0.93;;
5135;SDS011;2586;48.710;9.202;2023-03-19T13:52:10;1.07;;;0.77;;
5135;SDS011;2586;48.710;9.202;2023-03-19T13:54:51;2.80;;;1.33;;
5135;SDS011;2586;48.710;9.202;2023-03-19T13:57:31;2.70;;;1.03;;
5135;SDS011;2586;48.710;9.202;2023-03-19T14:00:48;3.10;;;0.80;;
5135;SDS011;2586;48.710;9.202;2023-03-19T14:03:03;2.10;;;1.30;;
5135;SDS011;2586;48.710;9.202;2023-03-19T14:05:34;2.07;;;1.10;;
5135;SDS011;2586;48.710;9.202;2023-03-19T14:08:00;1.37;;;1.27;;
5135;SDS011;2586;48.710;9.202;2023-03-19T14:10:44;1.10;;;1.00;;
5135;SDS011;2586;48.710;9.202;2023-03-19T14:13:18;2.10;;;1.00;;
5135;SDS011;2586;48.710;9.202;2023-03-19T14:15:50;3.20;;;1.67;;
5135;SDS011;2586;48.710;9.202;2023-03-19T14:18:17;4.17;;;1.40;;
5135;SDS011;2586;48.710;9.202;2023-03-19T14:23:25;3.33;;;1.47;;
5135;SDS011;2586;48.710;9.202;2023-03-19T14:31:22;2.07;;;1.47;;
5135;SDS011;2586;48.710;9.202;2023-03-19T14:34:14;1.83;;;1.10;;
5135;SDS011;2586;48.710;9.202;2023-03-19T14:36:48;1.57;;;0.87;;
5135;SDS011;2586;48.710;9.202;2023-03-19T14:39:23;1.67;;;1.23;;
5135;SDS011;2586;48.710;9.202;2023-03-19T14:41:59;3.67;;;1.10;;
5135;SDS011;2586;48.710;9.202;2023-03-19T14:53:40;2.60;;;1.07;;
5135;SDS011;2586;48.710;9.202;2023-03-19T14:56:14;1.57;;;1.23;;
5135;SDS011;2586;48.710;9.202;2023-03-19T14:58:50;3.70;;;1.30;;
5135;SDS011;2586;48.710;9.202;2023-03-19T15:01:20;3.13;;;1.40;;
5135;SDS011;2586;48.710;9.202;2023-03-19T15:04:07;3.53;;;1.33;;
5135;SDS011;2586;48.710;9.202;2023-03-19T15:06:36;3.23;;;1.17;;
5135;SDS011;2586;48.710;9.202;2023-03-19T15:09:18;2.00;;;0.97;;
5135;SDS011;2586;48.710;9.202;2023-03-19T15:17:28;3.53;;;1.30;;
5135;SDS011;2586;48.710;9.202;2023-03-19T15:19:57;2.70;;;1.40;;
5135;SDS011;2586;48.710;9.202;2023-03-19T15:22:29;5.17;;;1.20;;
5135;SDS011;2586;48.710;9.202;2023-03-19T15:25:12;7.30;;;1.67;;
5135;SDS011;2586;48.710;9.202;2023-03-19T15:27:39;1.53;;;1.40;;
5135;SDS011;2586;48.710;9.202;2023-03-19T15:30:19;2.43;;;1.33;;
5135;SDS011;2586;48.710;9.202;2023-03-19T15:32:47;1.87;;;1.20;;
5135;SDS011;2586;48.710;9.202;2023-03-19T15:35:12;3.83;;;1.30;;
5135;SDS011;2586;48.710;9.202;2023-03-19T15:37:39;3.60;;;1.47;;
5135;SDS011;2586;48.710;9.202;2023-03-19T15:40:09;1.37;;;1.27;;
5135;SDS011;2586;48.710;9.202;2023-03-19T15:42:37;4.70;;;1.43;;
5135;SDS011;2586;48.710;9.202;2023-03-19T15:45:05;2.00;;;1.80;;
5135;SDS011;2586;48.710;9.202;2023-03-19T15:47:33;2.57;;;1.57;;
5135;SDS011;2586;48.710;9.202;2023-03-19T15:52:32;2.67;;;1.60;;
5135;SDS011;2586;48.710;9.202;2023-03-19T15:55:02;1.70;;;1.30;;
5135;SDS011;2586;48.710;9.202;2023-03-19T15:57:28;3.27;;;1.50;;
5135;SDS011;2586;48.710;9.202;2023-03-19T15:59:55;1.70;;;1.50;;
5135;SDS011;2586;48.710;9.202;2023-03-19T16:02:25;2.90;;;1.60;;
5135;SDS011;2586;48.710;9.202;2023-03-19T16:04:59;1.70;;;1.33;;
5135;SDS011;2586;48.710;9.202;2023-03-19T16:09:54;2.97;;;1.50;;
5135;SDS011;2586;48.710;9.202;2023-03-19T16:12:39;9.33;;;2.07;;
5135;SDS011;2586;48.710;9.202;2023-03-19T16:17:52;2.20;;;1.00;;
5135;SDS011;2586;48.710;9.202;2023-03-19T16:20:17;6.37;;;1.40;;
5135;SDS011;2586;48.710;9.202;2023-03-19T16:22:44;3.83;;;1.73;;
5135;SDS011;2586;48.710;9.202;2023-03-19T16:25:22;3.27;;;1.47;;
5135;SDS011;2586;48.710;9.202;2023-03-19T16:27:54;2.70;;;1.33;;
5135;SDS011;2586;48.710;9.202;2023-03-19T16:32:57;1.83;;;1.03;;
5135;SDS011;2586;48.710;9.202;2023-03-19T16:35:24;5.00;;;1.23;;
5135;SDS011;2586;48.710;9.202;2023-03-19T16:37:51;3.47;;;1.50;;
5135;SDS011;2586;48.710;9.202;2023-03-19T16:42:48;8.13;;;1.57;;
5135;SDS011;2586;48.710;9.202;2023-03-19T16:45:19;7.10;;;1.33;;
5135;SDS011;2586;48.710;9.202;2023-03-19T16:47:50;8.50;;;1.90;;
5135;SDS011;2586;48.710;9.202;2023-03-19T16:50:17;4.03;;;2.20;;
5135;SDS011;2586;48.710;9.202;2023-03-19T16:52:45;4.83;;;2.10;;
5135;SDS011;2586;48.710;9.202;2023-03-19T16:57:58;11.03;;;2.53;;
5135;SDS011;2586;48.710;9.202;2023-03-19T17:00:26;4.53;;;3.23;;
5135;SDS011;2586;48.710;9.202;2023-03-19T17:02:53;3.37;;;1.90;;
5135;SDS011;2586;48.710;9.202;2023-03-19T17:05:20;3.53;;;2.03;;
5135;SDS011;2586;48.710;9.202;2023-03-19T17:07:46;2.30;;;1.80;;
5135;SDS011;2586;48.710;9.202;2023-03-19T17:10:15;1.83;;;1.53;;
5135;SDS011;2586;48.710;9.202;2023-03-19T17:12:43;2.10;;;1.90;;
5135;SDS011;2586;48.710;9.202;2023-03-19T17:17:49;3.20;;;2.10;;
5135;SDS011;2586;48.710;9.202;2023-03-19T17:20:18;2.43;;;2.13;;
5135;SDS011;2586;48.710;9.202;2023-03-19T17:22:46;3.07;;;2.43;;
5135;SDS011;2586;48.710;9.202;2023-03-19T17:25:13;3.83;;;2.40;;
5135;SDS011;2586;48.710;9.202;2023-03-19T17:27:42;3.33;;;1.80;;
5135;SDS011;2586;48.710;9.202;2023-03-19T17:30:08;3.13;;;2.30;;
5135;SDS011;2586;48.710;9.202;2023-03-19T17:32:34;2.40;;;1.90;;
5135;SDS011;2586;48.710;9.202;2023-03-19T17:35:02;3.93;;;2.20;;
5135;SDS011;2586;48.710;9.202;2023-03-19T17:37:28;5.50;;;2.30;;